createdAt,value
2022-10-17T00:00:46.879Z,90.00
2022-10-17T00:03:14.936Z,90.30
2022-10-17T00:05:46.099Z,90.30
2022-10-17T00:08:15.340Z,90.20
2022-10-17T00:10:43.905Z,88.10
2022-10-17T00:13:12.972Z,89.40
2022-10-17T00:15:45.287Z,88.70
2022-10-17T00:18:13.248Z,88.60
2022-10-17T00:20:41.247Z,88.70
2022-10-17T00:23:10.576Z,89.90
2022-10-17T00:25:38.570Z,89.60
2022-10-17T00:28:06.664Z,89.30
2022-10-17T00:30:34.624Z,88.20
2022-10-17T00:33:02.602Z,89.60
2022-10-17T00:35:30.620Z,89.40
2022-10-17T00:37:58.602Z,90.40
2022-10-17T00:40:27.888Z,92.60
2022-10-17T00:42:55.923Z,93.50
2022-10-17T00:45:25.737Z,92.90
2022-10-17T00:47:59.717Z,94.30
2022-10-17T00:50:28.081Z,94.50
2022-10-17T00:52:59.410Z,94.60
2022-10-17T00:55:32.113Z,95.20
2022-10-17T00:58:04.331Z,94.50
2022-10-17T01:00:32.342Z,93.40
2022-10-17T01:03:00.661Z,93.30
2022-10-17T01:05:29.227Z,92.60
2022-10-17T01:07:57.652Z,92.00
2022-10-17T01:10:32.384Z,91.70
2022-10-17T01:13:11.405Z,91.90
2022-10-17T01:15:51.351Z,92.50
2022-10-17T01:18:33.297Z,90.60
2022-10-17T01:21:35.430Z,92.20
2022-10-17T01:24:45.001Z,90.70
2022-10-17T01:27:46.113Z,90.80
2022-10-17T01:30:52.440Z,99.90
2022-10-17T01:33:33.654Z,90.10
2022-10-17T01:36:05.993Z,87.30
2022-10-17T01:38:39.190Z,90.30
2022-10-17T01:41:14.771Z,89.00
2022-10-17T01:43:49.554Z,90.00
2022-10-17T01:46:23.037Z,89.50
2022-10-17T01:48:54.301Z,89.40
2022-10-17T01:51:25.994Z,90.00
2022-10-17T01:53:57.949Z,91.10
2022-10-17T01:56:29.486Z,91.30
2022-10-17T01:59:02.243Z,91.90
2022-10-17T02:01:31.972Z,91.60
2022-10-17T02:04:03.578Z,91.90
2022-10-17T02:06:36.055Z,91.50
2022-10-17T02:09:18.736Z,91.90
2022-10-17T02:11:55.744Z,91.40
2022-10-17T02:14:32.080Z,91.50
2022-10-17T02:17:09.575Z,91.50
2022-10-17T02:19:51.560Z,91.00
2022-10-17T02:22:28.843Z,90.10
2022-10-17T02:25:03.872Z,90.50
2022-10-17T02:27:39.771Z,90.50
2022-10-17T02:30:13.659Z,98.00
2022-10-17T02:32:48.051Z,88.30
2022-10-17T02:35:21.973Z,88.50
2022-10-17T02:37:52.176Z,88.60
2022-10-17T02:40:23.879Z,90.20
2022-10-17T02:42:53.852Z,90.80
2022-10-17T02:45:22.845Z,91.80
2022-10-17T02:47:58.619Z,92.20
2022-10-17T02:50:34.435Z,90.50
2022-10-17T02:53:07.288Z,90.90
2022-10-17T02:55:40.582Z,90.70
2022-10-17T02:58:13.246Z,90.80
2022-10-17T03:00:42.816Z,90.30
2022-10-17T03:03:20.925Z,90.80
2022-10-17T03:05:50.576Z,90.20
2022-10-17T03:08:18.532Z,90.10
2022-10-17T03:10:46.479Z,87.60
2022-10-17T03:13:15.165Z,86.50
2022-10-17T03:15:43.305Z,87.50
2022-10-17T03:18:11.293Z,86.80
2022-10-17T03:20:39.294Z,86.20
2022-10-17T03:23:08.677Z,86.90
2022-10-17T03:25:36.613Z,89.10
2022-10-17T03:28:05.501Z,90.20
2022-10-17T03:30:33.964Z,90.50
2022-10-17T03:33:02.262Z,90.20
2022-10-17T03:35:30.213Z,90.40
2022-10-17T03:37:58.314Z,90.40
2022-10-17T03:40:27.631Z,90.30
2022-10-17T03:42:55.556Z,90.50
2022-10-17T03:45:23.514Z,90.20
2022-10-17T03:47:51.447Z,88.70
2022-10-17T03:50:19.358Z,87.80
2022-10-17T03:52:48.316Z,87.70
2022-10-17T03:55:16.727Z,89.00
2022-10-17T03:57:46.038Z,90.70
2022-10-17T04:00:14.719Z,99.90
2022-10-17T04:02:42.793Z,91.10
2022-10-17T04:05:10.990Z,91.30
2022-10-17T04:07:38.962Z,90.70
2022-10-17T04:10:07.903Z,97.30
2022-10-17T04:12:35.837Z,89.10
2022-10-17T04:15:05.805Z,90.00
2022-10-17T04:17:37.309Z,90.10
2022-10-17T04:20:06.986Z,96.80
2022-10-17T04:22:34.977Z,88.20
2022-10-17T04:25:02.913Z,90.00
2022-10-17T04:27:30.867Z,90.50
2022-10-17T04:32:28.649Z,88.50
2022-10-17T04:34:56.887Z,90.20
2022-10-17T04:37:24.836Z,89.50
2022-10-17T04:39:52.807Z,89.20
2022-10-17T04:42:20.754Z,88.70
2022-10-17T04:44:48.683Z,88.60
2022-10-17T04:47:16.617Z,88.40
2022-10-17T04:49:45.889Z,88.10
2022-10-17T04:52:13.845Z,88.10
2022-10-17T04:54:41.819Z,87.90
2022-10-17T04:57:09.770Z,86.50
2022-10-17T04:59:37.770Z,87.10
2022-10-17T05:02:05.748Z,87.50
2022-10-17T05:04:33.705Z,88.20
2022-10-17T05:07:03.504Z,88.90
2022-10-17T05:09:31.826Z,89.40
2022-10-17T05:11:59.788Z,87.00
2022-10-17T05:14:27.884Z,87.60
2022-10-17T05:16:55.832Z,87.50
2022-10-17T05:19:23.811Z,87.90
2022-10-17T05:21:51.766Z,86.90
2022-10-17T05:24:21.072Z,87.90
2022-10-17T05:26:51.272Z,89.00
2022-10-17T05:29:19.328Z,89.40
2022-10-17T05:31:47.282Z,88.20
2022-10-17T05:34:15.257Z,88.20
2022-10-17T05:36:43.198Z,89.50
2022-10-17T05:39:13.474Z,88.20
2022-10-17T05:41:42.825Z,87.80
2022-10-17T05:44:10.783Z,88.60
2022-10-17T05:46:38.739Z,88.50
2022-10-17T05:49:14.872Z,88.20
2022-10-17T05:51:47.475Z,87.00
2022-10-17T05:54:15.446Z,87.30
2022-10-17T05:56:44.775Z,86.30
2022-10-17T05:59:12.757Z,86.50
2022-10-17T06:01:40.690Z,85.80
2022-10-17T06:04:08.686Z,87.30
2022-10-17T06:06:37.572Z,87.30
2022-10-17T06:09:05.874Z,88.40
2022-10-17T06:11:33.829Z,87.20
2022-10-17T06:14:03.342Z,86.00
2022-10-17T06:16:31.318Z,85.90
2022-10-17T06:18:59.268Z,86.40
2022-10-17T06:21:28.969Z,87.70
2022-10-17T06:23:56.919Z,89.40
2022-10-17T06:26:24.880Z,90.40
2022-10-17T06:28:52.919Z,90.80
2022-10-17T06:31:22.489Z,91.10
2022-10-17T06:33:50.436Z,91.30
2022-10-17T06:36:18.553Z,90.00
2022-10-17T06:38:46.582Z,90.10
2022-10-17T06:41:16.198Z,89.80
2022-10-17T06:43:46.581Z,90.00
2022-10-17T06:46:16.575Z,90.30
2022-10-17T06:48:46.050Z,90.00
2022-10-17T06:51:14.088Z,90.50
2022-10-17T06:53:42.568Z,90.70
2022-10-17T06:56:11.333Z,89.90
2022-10-17T06:58:40.713Z,90.40
2022-10-17T07:01:10.592Z,90.60
2022-10-17T07:03:38.877Z,90.60
2022-10-17T07:06:08.666Z,90.80
2022-10-17T07:08:36.634Z,91.30
2022-10-17T07:11:11.245Z,90.70
2022-10-17T07:13:39.502Z,90.80
2022-10-17T07:16:08.301Z,90.70
2022-10-17T07:18:36.393Z,90.60
2022-10-17T07:21:04.771Z,91.60
2022-10-17T07:23:36.579Z,91.50
2022-10-17T07:26:07.518Z,92.00
2022-10-17T07:28:35.972Z,91.50
2022-10-17T07:31:07.925Z,91.10
2022-10-17T07:33:36.101Z,90.90
2022-10-17T07:36:05.078Z,90.50
2022-10-17T07:38:35.045Z,90.30
2022-10-17T07:41:04.691Z,90.50
2022-10-17T07:43:33.466Z,90.80
2022-10-17T07:46:02.500Z,91.10
2022-10-17T07:48:31.121Z,90.70
2022-10-17T07:50:59.074Z,90.40
2022-10-17T07:53:27.026Z,90.50
2022-10-17T07:55:56.309Z,90.70
2022-10-17T07:58:24.263Z,90.50
2022-10-17T08:00:52.289Z,86.70
2022-10-17T08:03:20.403Z,86.80
2022-10-17T08:05:48.366Z,88.70
2022-10-17T08:08:16.318Z,88.10
2022-10-17T08:10:44.363Z,88.30
2022-10-17T08:13:13.645Z,88.40
2022-10-17T08:15:41.914Z,88.90
2022-10-17T08:18:09.834Z,87.50
2022-10-17T08:20:38.445Z,86.20
2022-10-17T08:23:06.407Z,86.10
2022-10-17T08:25:34.506Z,85.80
2022-10-17T08:28:02.704Z,87.00
2022-10-17T08:30:32.075Z,83.10
2022-10-17T08:33:00.023Z,83.30
2022-10-17T08:35:28.010Z,80.80
2022-10-17T08:37:55.978Z,77.10
2022-10-17T08:40:27.394Z,72.80
2022-10-17T08:43:21.891Z,74.30
2022-10-17T08:45:55.238Z,67.40
2022-10-17T08:48:26.599Z,69.30
2022-10-17T08:50:57.718Z,64.20
2022-10-17T08:53:32.062Z,64.80
2022-10-17T08:56:07.224Z,64.50
2022-10-17T08:58:38.107Z,60.00
2022-10-17T09:01:15.624Z,76.50
2022-10-17T09:03:53.238Z,79.30
2022-10-17T09:06:29.644Z,79.30
2022-10-17T09:09:10.293Z,78.30
2022-10-17T09:12:00.685Z,76.40
2022-10-17T09:14:59.413Z,72.10
2022-10-17T09:17:37.206Z,67.70
2022-10-17T09:20:11.061Z,71.00
2022-10-17T09:22:43.977Z,71.10
2022-10-17T09:25:15.325Z,70.50
2022-10-17T09:27:47.581Z,70.30
2022-10-17T09:30:46.169Z,65.10
2022-10-17T09:33:28.515Z,64.50
2022-10-17T09:36:06.045Z,68.30
2022-10-17T09:38:39.878Z,69.00
2022-10-17T09:41:39.182Z,68.20
2022-10-17T09:44:15.885Z,69.70
2022-10-17T09:46:47.765Z,69.70
2022-10-17T09:49:21.511Z,67.20
2022-10-17T09:51:49.885Z,65.60
2022-10-17T09:54:22.856Z,65.30
2022-10-17T09:57:02.267Z,65.70
2022-10-17T09:59:33.125Z,65.70
2022-10-17T10:02:17.379Z,64.30
2022-10-17T10:05:04.752Z,63.90
2022-10-17T10:07:35.633Z,61.40
2022-10-17T10:10:05.628Z,60.60
2022-10-17T10:12:35.524Z,61.20
2022-10-17T10:15:23.539Z,62.30
2022-10-17T10:17:53.569Z,59.70
2022-10-17T10:20:35.776Z,61.00
2022-10-17T10:23:09.232Z,57.00
2022-10-17T10:25:37.547Z,60.50
2022-10-17T10:28:11.850Z,59.20
2022-10-17T10:30:40.158Z,57.50
2022-10-17T10:33:13.176Z,57.80
2022-10-17T10:35:42.562Z,57.60
2022-10-17T10:38:14.754Z,58.60
2022-10-17T10:40:48.244Z,59.50
2022-10-17T10:43:25.443Z,60.10
2022-10-17T10:45:54.395Z,59.70
2022-10-17T10:48:24.198Z,58.90
2022-10-17T10:50:57.852Z,59.70
2022-10-17T10:53:35.457Z,60.30
2022-10-17T10:56:09.096Z,59.60
2022-10-17T10:58:48.757Z,60.40
2022-10-17T11:01:23.540Z,59.00
2022-10-17T11:04:09.190Z,57.20
2022-10-17T11:06:43.127Z,56.90
2022-10-17T11:09:19.331Z,56.20
2022-10-17T11:11:52.553Z,56.50
2022-10-17T11:14:28.568Z,56.50
2022-10-17T11:17:04.234Z,56.00
2022-10-17T11:19:38.175Z,55.80
2022-10-17T11:22:15.901Z,53.80
2022-10-17T11:24:49.755Z,54.30
2022-10-17T11:27:17.750Z,53.70
2022-10-17T11:29:46.626Z,52.30
2022-10-17T11:32:20.556Z,51.60
2022-10-17T11:34:51.086Z,53.20
2022-10-17T11:37:24.087Z,49.70
2022-10-17T11:39:55.918Z,50.20
2022-10-17T11:42:29.639Z,49.80
2022-10-17T11:45:03.010Z,50.30
2022-10-17T11:47:40.404Z,47.00
2022-10-17T11:53:15.969Z,42.80
2022-10-17T11:55:44.639Z,46.30
2022-10-17T11:58:24.538Z,43.90
2022-10-17T12:01:01.612Z,41.90
2022-10-17T12:03:52.743Z,42.50
2022-10-17T12:06:32.423Z,40.80
2022-10-17T12:09:08.585Z,40.70
2022-10-17T12:11:46.513Z,40.70
2022-10-17T12:14:37.691Z,40.50
2022-10-17T12:17:06.959Z,38.60
2022-10-17T12:19:37.729Z,41.30
2022-10-17T12:22:18.814Z,41.90
2022-10-17T12:24:56.835Z,42.90
2022-10-17T12:27:47.286Z,41.80
2022-10-17T12:30:24.229Z,38.90
2022-10-17T12:33:06.496Z,43.00
2022-10-17T12:35:37.006Z,43.60
2022-10-17T12:38:29.057Z,42.80
2022-10-17T12:41:03.174Z,41.20
2022-10-17T12:43:57.928Z,38.70
2022-10-17T12:46:51.061Z,37.00
2022-10-17T12:49:25.283Z,38.50
2022-10-17T12:52:29.492Z,38.90
2022-10-17T12:55:12.185Z,32.40
2022-10-17T12:58:01.137Z,38.00
2022-10-17T13:00:34.588Z,37.10
2022-10-17T13:03:11.613Z,37.10
2022-10-17T13:05:43.433Z,36.10
2022-10-17T13:08:18.870Z,36.90
2022-10-17T13:10:51.707Z,36.60
2022-10-17T13:13:24.516Z,35.00
2022-10-17T13:15:55.996Z,36.40
2022-10-17T13:18:25.950Z,34.80
2022-10-17T13:21:02.128Z,35.70
2022-10-17T13:23:36.874Z,35.60
2022-10-17T19:16:51.698Z,98.20
2022-10-17T19:19:21.507Z,97.90
2022-10-17T19:21:50.223Z,98.20
2022-10-17T19:24:20.729Z,98.00
2022-10-17T19:26:50.627Z,98.00
2022-10-17T19:29:19.492Z,98.40
2022-10-17T19:31:49.502Z,98.60
2022-10-17T19:34:18.570Z,99.00
2022-10-17T19:36:47.013Z,99.10
2022-10-17T19:39:17.094Z,99.70
2022-10-17T19:41:46.786Z,98.70
2022-10-17T19:44:15.041Z,99.30
2022-10-17T19:46:44.330Z,99.90
2022-10-17T19:49:14.268Z,99.90
2022-10-17T19:51:42.388Z,99.90
2022-10-17T19:54:10.863Z,99.90
2022-10-17T19:56:38.928Z,99.90
2022-10-17T19:59:07.533Z,99.90
2022-10-17T20:01:38.751Z,99.90
2022-10-17T20:04:07.411Z,99.90
2022-10-17T20:06:36.885Z,99.90
2022-10-17T20:09:05.589Z,99.90
2022-10-17T20:11:33.741Z,99.90
2022-10-17T20:14:02.448Z,99.90
2022-10-17T20:16:32.137Z,99.90
2022-10-17T20:19:05.622Z,99.80
2022-10-17T20:21:35.084Z,99.90
2022-10-17T20:24:06.796Z,99.90
2022-10-17T20:26:38.772Z,99.90
2022-10-17T20:29:11.871Z,99.90
2022-10-17T20:31:41.200Z,99.90
2022-10-17T20:34:09.175Z,99.90
2022-10-17T20:36:37.803Z,99.90
2022-10-17T20:39:08.410Z,99.90
2022-10-17T20:41:36.384Z,99.90
2022-10-17T20:44:04.701Z,99.90
2022-10-17T20:46:37.629Z,99.90
2022-10-17T20:49:08.887Z,99.90
2022-10-17T20:51:37.392Z,99.90
2022-10-17T20:54:06.989Z,99.90
2022-10-17T20:56:35.673Z,99.90
2022-10-17T20:59:05.857Z,99.90
2022-10-17T21:01:36.482Z,99.90
2022-10-17T21:06:53.578Z,99.90
2022-10-17T21:09:23.400Z,99.90
2022-10-17T21:11:55.090Z,99.90
2022-10-17T21:14:24.089Z,99.90
2022-10-17T21:16:53.173Z,99.90
2022-10-17T21:19:22.632Z,99.90
2022-10-17T21:21:50.894Z,99.90
2022-10-17T21:24:20.487Z,99.90
2022-10-17T21:26:55.417Z,99.90
2022-10-17T21:29:24.536Z,99.90
2022-10-17T21:31:52.808Z,99.20
2022-10-17T21:34:22.065Z,98.90
2022-10-17T21:36:50.209Z,99.00
2022-10-17T21:39:18.483Z,98.90
2022-10-17T21:41:46.487Z,98.50
2022-10-17T21:44:17.689Z,98.10
2022-10-17T21:46:46.065Z,98.70
2022-10-17T21:49:16.087Z,99.20
2022-10-17T21:51:45.201Z,99.90
2022-10-17T21:54:13.239Z,99.90
2022-10-17T21:56:41.770Z,99.90
2022-10-17T21:59:10.286Z,99.90
2022-10-17T22:01:41.622Z,99.90
2022-10-17T22:04:14.516Z,99.90
2022-10-17T22:06:44.612Z,99.90
2022-10-17T22:09:15.127Z,99.90
2022-10-17T22:11:45.464Z,99.90
2022-10-17T22:14:15.409Z,99.90
2022-10-17T22:19:16.448Z,99.40
2022-10-17T22:21:44.455Z,99.90
2022-10-17T22:24:14.696Z,99.90
2022-10-17T22:26:44.439Z,99.90
2022-10-17T22:29:13.002Z,99.90
2022-10-17T22:31:41.289Z,99.90
2022-10-17T22:34:13.403Z,99.90
2022-10-17T22:36:41.750Z,99.90
2022-10-17T22:39:10.411Z,99.90
2022-10-17T22:41:38.340Z,99.90
2022-10-17T22:44:06.709Z,99.90
2022-10-17T22:46:34.958Z,99.90
2022-10-17T22:49:02.914Z,99.90
2022-10-17T22:51:32.306Z,99.50
2022-10-17T22:54:00.258Z,99.30
2022-10-17T22:56:28.226Z,99.70
2022-10-17T22:58:56.174Z,98.10
2022-10-17T23:01:26.257Z,98.10
2022-10-17T23:03:54.346Z,98.60
2022-10-17T23:06:22.826Z,98.30
2022-10-17T23:08:52.494Z,98.40
2022-10-17T23:11:21.312Z,99.10
2022-10-17T23:13:49.464Z,98.90
2022-10-17T23:16:17.545Z,98.90
2022-10-17T23:18:45.593Z,98.20
2022-10-17T23:21:14.574Z,97.60
2022-10-17T23:23:42.541Z,97.60
2022-10-17T23:26:14.604Z,97.10
2022-10-17T23:28:43.385Z,97.50
2022-10-17T23:31:13.492Z,97.50
2022-10-17T23:33:41.781Z,97.60
2022-10-17T23:36:10.989Z,97.90
2022-10-17T23:38:39.042Z,98.10
2022-10-17T23:41:07.366Z,98.90
2022-10-17T23:43:36.883Z,99.90
2022-10-17T23:46:06.094Z,99.90
2022-10-17T23:48:34.052Z,99.90
2022-10-17T23:51:02.002Z,99.90
2022-10-17T23:53:29.992Z,99.90
2022-10-17T23:55:57.969Z,99.70
2022-10-17T23:58:25.940Z,99.90
